Nearby METAR Reports

 

KSJC - San Jose, California, USA
Distance from station: NE 14km
Actualización: 03/02/2023 14:53
Orbayando, Cubierto
Orbayando, Cubierto
 Viento del varies
Viento: varies 6 km/h
Temperatura: 11°C
Rocío: 3°C
Humedad: 58%
Barómetro: 1022.7 hPa
Resumen: Orbayando
Clouds: Cubierto
Visibility: 16 km
Cloud details: Cubierto 2134 m
2023/02/03 13:53 KSJC 031353Z VRB03KT 10SM -RA OVC070 11/03 A3020 RMK AO2 RAB1259 SLP224 P0003 T01060033
KNUQ - Moffett Nas/Mtn, California, USA
Distance from station: N 14km
Actualización: 03/02/2023 14:55
Cubierto
Cubierto
 Viento del SSE
Viento: SSE 19 km/h, Racha: 30 km/h
Temperatura: 12°C
Rocío: 3°C
Humedad: 54%
Barómetro: 1022.4 hPa
Clouds: Cubierto
Visibility: 16 km
Cloud details: Parcialmente nuboso 1341 m
Muy nuboso 1524 m
Cubierto 1829 m
2023/02/03 13:55 KNUQ 031355Z AUTO 16010G16KT 10SM SCT044 BKN050 OVC060 12/03 A3019 RMK AO2 P0004
 
KPAO - Palo Alto, California, USA
Distance from station: NNO 23km
Actualización: 03/02/2023 04:47
NOT Current
Muy nuboso
Muy nuboso
 Viento del E
Viento: E 15 km/h
Temperatura: 12°C
Rocío: -1°C
Humedad: 41%
Barómetro: 1022.7 hPa
Clouds: Muy nuboso
Visibility: 16 km
Cloud details: Muy nuboso 3048 m
2023/02/03 03:47 KPAO 030347Z 09008KT 10SM BKN100 12/M01 A3020 RMK LAST
KRHV - San Jose/Reid, California, USA
Distance from station: ENE 19km
Actualización: 03/02/2023 06:55
NOT Current
Muy nuboso
Muy nuboso
 Viento del SSE
Viento: SSE 15 km/h
Temperatura: 13°C
Rocío: -1°C
Humedad: 38%
Barómetro: 1022.7 hPa
Clouds: Muy nuboso
Visibility: 16 km
Cloud details: Muy nuboso 3658 m
2023/02/03 05:55 KRHV 030555Z 15008KT 10SM BKN120 13/M01 A3020 RMK LAST
 
KOAK - Oakland, California, USA
Distance from station: NNO 50km
Actualización: 03/02/2023 14:53
Orbayando, Mist, Cubierto
Orbayando, Mist, Cubierto
 Viento del N
Viento: N 11 km/h
Temperatura: 9°C
Wind Chill: 7°C
Rocío: 6°C
Humedad: 82%
Barómetro: 1023.4 hPa
Resumen: Orbayando, Mist
Clouds: Cubierto
Visibility: 10 km
Cloud details: Few Clouds 244 m
Cubierto 853 m
2023/02/03 13:53 KOAK 031353Z 01006KT 6SM -RA BR FEW008 OVC028 09/06 A3022 RMK AO2 SLP231 P0012 T00940061
KSQL - San Carlos Airpo, California, USA
Distance from station: NO 34km
Actualización: 03/02/2023 14:55
Orbayando, Cubierto
Orbayando, Cubierto
 Viento del SSO
Viento: SSO 7 km/h
Temperatura: 10°C
Wind Chill: 9°C
Rocío: 8°C
Humedad: 88%
Barómetro: 1022.7 hPa
Resumen: Orbayando
Clouds: Cubierto
Visibility: 8 km
Cloud details: Parcialmente nuboso 914 m
Cubierto 1067 m
2023/02/03 13:55 KSQL 031355Z AUTO 20004KT 5SM -RA SCT030 OVC035 10/08 A3020 RMK AO2 P0002
 
KSFO - San Francisco, California, USA
Distance from station: NO 49km
Actualización: 03/02/2023 15:08
Lluvia, Mist, Cubierto
Lluvia, Mist, Cubierto
 Viento del ESE
Viento: ESE 9 km/h
Temperatura: 11°C
Rocío: 9°C
Humedad: 88%
Barómetro: 1023 hPa
Resumen: Lluvia, Mist
Clouds: Cubierto
Visibility: 4 km
Cloud details: Few Clouds 274 m
Muy nuboso 518 m
Cubierto 853 m
2023/02/03 14:08 KSFO 031408Z 12005KT 2 1/2SM RA BR FEW009 BKN017 OVC028 11/09 A3021 RMK AO2 P0003 T01060089 $
KE16 - San Martin, California, USA
Distance from station: ESE 43km
Actualización: 03/02/2023 14:55
Cubierto
Cubierto
 Viento del NO
Viento: NO 9 km/h
Temperatura: 9°C
Wind Chill: 7°C
Rocío: 0°C
Humedad: 54%
Barómetro: 1023.4 hPa
Clouds: Cubierto
Visibility: 16 km
Cloud details: Cubierto 2286 m
2023/02/03 13:55 KE16 031355Z AUTO 31005KT 10SM OVC075 09/00 A3022 RMK AO2 PWINO PNO
 
KWVI - Watsonville, California, USA
Distance from station: SSE 44km
Actualización: 03/02/2023 14:53
Orbayando, Cubierto
Orbayando, Cubierto
 Viento del ONO
Viento: ONO 11 km/h
Temperatura: 9°C
Wind Chill: 7°C
Rocío: 2°C
Humedad: 62%
Barómetro: 1023.4 hPa
Resumen: Orbayando
Clouds: Cubierto
Visibility: 16 km
Cloud details: Muy nuboso 1494 m
Cubierto 1829 m
2023/02/03 13:53 KWVI 031353Z AUTO 30006KT 10SM -RA BKN049 OVC060 09/02 A3022 RMK AO2 RAB42 SLP233 P0000 T00890017
KHAF - Half Moon Bay, California, USA
Distance from station: ONO 50km
Actualización: 03/02/2023 14:55
Lluvia, Mist, Cubierto
Lluvia, Mist, Cubierto
 Viento del S
Viento: S 19 km/h, Racha: 37 km/h
Temperatura: 11°C
Rocío: 10°C
Humedad: 94%
Barómetro: 1022.7 hPa
Resumen: Lluvia, Mist
Clouds: Cubierto
Visibility: 3 km
Cloud details: Parcialmente nuboso 518 m
Muy nuboso 853 m
Cubierto 1250 m
2023/02/03 13:55 KHAF 031355Z AUTO 19010G20KT 2SM RA BR SCT017 BKN028 OVC041 11/10 A3020 RMK AO2 P0018
 
KHWD - Hayward, California, USA
Distance from station: N 44km
Actualización: 03/02/2023 14:54
Orbayando, Cubierto
Orbayando, Cubierto
 Viento del SE
Viento: SE 9 km/h
Temperatura: 10°C
Wind Chill: 9°C
Rocío: 6°C
Humedad: 76%
Barómetro: 1022.4 hPa
Resumen: Orbayando
Clouds: Cubierto
Visibility: 14 km
Cloud details: Cubierto 1128 m
2023/02/03 13:54 KHWD 031354Z AUTO 13005KT 9SM -RA OVC037 10/06 A3019 RMK AO2 SLP233 P0009 T01000056
KLVK - Livermore, California, USA
Distance from station: NNE 51km
Actualización: 03/02/2023 14:53
Orbayando, Cubierto
Orbayando, Cubierto
 Viento del NO
Viento: NO 7 km/h
Temperatura: 10°C
Wind Chill: 9°C
Rocío: 3°C
Humedad: 62%
Barómetro: 1022.4 hPa
Resumen: Orbayando
Clouds: Cubierto
Visibility: 16 km
Cloud details: Cubierto 1981 m
2023/02/03 13:53 KLVK 031353Z AUTO 32004KT 10SM -RA OVC065 10/03 A3019 RMK AO2 RAB18 SLP221 P0003 T01000033